Highlands Peak, California Weather observations

Data are for observation ending at time listed.
 Day   Time    Ave.   Ave.  Ave.  Vector   Max.   Stn.    Total    Solar   Ave.  
  of    of     Air    Rel.  Wind   Wind    Wind   Baro.  Precip.   Rad.    Soil  
Year   Day     Temp.  Hum.  Speed  Dir.    Gust   Pres.                    Temp. 
2015   (PST)    F      %     mph   deg.    mph     mb.     in.     W/m2     F   
------------------------------------------------------------------------------
 145    0:00   60.6    48    2.2   350      4.3   927.7    0.00       0    67.4
 145    0:10   58.8    51    1.8   232      2.8   927.7    0.00       0    67.4
 145    0:20   57.8    51    2.3   196      3.3   927.7    0.00       0    67.4
 145    0:30   56.7    51    3.5   155      4.5   927.6    0.00       0    67.3
 145    0:40   58.3    46    4.1   143      5.2   927.6    0.00       0    67.2
 145    0:50   57.4    55    4.7    91      7.5   927.6    0.00       0    67.0
 145    1:00   57.1    56    2.7   102      4.6   927.6    0.00       0    66.8
 145    1:10   57.1    56    4.0    82      6.1   927.5    0.00       0    66.7
 145    1:20   56.5    58    4.0    82      5.8   927.5    0.00       0    66.5
 145    1:30   57.2    53    3.0    85      5.0   927.4    0.00       0    66.3
 145    1:40   58.9    48    2.6    92      3.8   927.4    0.00       0    66.1
 145    1:50   59.1    47    1.6    96      3.0   927.3    0.00       0    66.0
 145    2:00   58.8    50    3.2    77      6.2   927.3    0.00       0    65.8
 145    2:10   57.2    54    5.2    91      6.9   927.1    0.00       0    65.7
 145    2:20   57.4    52    4.4   100      5.7   927.0    0.00       0    65.7
 145    2:30   58.7    49    2.4    94      4.9   927.0    0.00       0    65.7
 145    2:40   57.7    53    5.0    86      7.2   927.0    0.00       0    65.5
 145    2:50   57.1    54    3.5    92      5.2   926.9    0.00       0    65.4
 145    3:00   57.9    50    1.8   264      3.4   926.9    0.00       0    65.3
 145    3:10   57.4    50    1.8   311      3.6   926.9    0.00       0    65.2
 145    3:20   56.5    55    5.1    74      8.6   926.8    0.00       0    65.0
 145    3:30   56.6    55    4.0    88      5.9   926.7    0.00       0    64.9
 145    3:40   57.6    52    2.2   170      4.4   926.8    0.00       0    64.8
 145    3:50   56.4    55    1.8   204      3.5   926.8    0.00       0    64.7
 145    4:00   52.9    62    2.0   185      3.8   926.9    0.00       0    64.7
 145    4:10   49.2    73    2.4   168      4.2   927.0    0.00       0    64.7
 145    4:20   45.5    86    3.2   152      4.4   927.0    0.00       0    64.6
 145    4:30   44.5    89    3.2   176      5.5   927.1    0.00       0    64.5
 145    4:40   43.1    94    3.3   151      5.5   927.1    0.00       0    64.4
 145    4:50   42.8    96    4.1   148      5.9   927.1    0.00       1    64.2
 145    5:00   43.0    97    2.6   151      5.5   927.2    0.00       5    64.1
 145    5:10   43.5    97    2.8    12      3.9   927.2    0.00      10    64.0
 145    5:20   45.4    95    3.7     4      4.6   927.3    0.00      16    63.9
 145    5:30   46.1    92    2.5   312      3.7   927.3    0.00      21    63.7
 145    5:40   46.1    92    3.8     8      5.7   927.3    0.00      26    63.6
 145    5:50   47.6    87    4.3    71      7.5   927.2    0.00      31    63.4
 145    6:00   49.4    79    5.1    90      7.2   927.3    0.00      98    63.3
 145    6:10   53.0    69    3.3    93      5.4   927.4    0.00     219    63.1
 145    6:20   55.7    63    2.0    91      3.3   927.5    0.00     258    63.0
 145    6:30   56.7    61    2.3    84      3.4   927.5    0.00     297    62.9
 145    6:40   58.4    56    1.1   130      2.7   927.6    0.00     337    62.8
 145    6:50   57.4    59    1.1   172      2.3   927.7    0.00     376    62.7
 145    7:00   58.4    62    1.1   118      2.3   927.7    0.00     416    62.7
 145    7:10   59.1    56    1.4   206      2.8   927.8    0.00     455    62.6
 145    7:20   59.2    56    0.6   214      2.1   927.9    0.00     488    62.6
 145    7:30   60.0    56    1.9   153      4.0   928.0    0.00     522    62.6
 145    7:40   58.7    63    1.4   155      4.7   928.1    0.00     568    62.6
 145    7:50   58.7    63    2.1   119      4.1   928.1    0.00     603    62.7
 145    8:00   56.6    70    1.5   202      4.2   928.2    0.00     637    62.7
 145    8:10   53.1    80    1.6   243      3.2   928.3    0.00     670    62.7
 145    8:20   50.4    87    1.6   295      3.3   928.4    0.00     689    62.8
 145    8:30   50.2    89    1.2   300      3.7   928.4    0.00     733    62.9
 145    8:40   50.7    87    1.6   297      3.6   928.5    0.00     751    63.0
 145    8:50   50.0    89    2.6   279      4.7   928.6    0.00     670    63.1
 145    9:00   51.4    87    0.9   304      2.6   928.6    0.00     853    63.3
 145    9:10   51.7    85    1.6   283      3.1   928.6    0.00     878    63.4
 145    9:20   51.8    85    2.1   238      5.1   928.5    0.00     908    63.6
 145    9:30   51.4    86    1.9   265      3.9   928.5    0.00     932    63.8
 145    9:40   51.0    88    2.2   278      4.3   928.6    0.00     975    64.0
 145    9:50   51.7    86    1.6   278      4.9   928.6    0.00     999    64.2
 145   10:00   52.1    85    2.6   276      4.8   928.7    0.00    1036    64.5
 145   10:10   51.8    86    2.6   259      4.7   928.7    0.00     853    64.7
 145   10:20   50.7    88    3.6   278      5.3   928.9    0.00     745    64.9
 145   10:30   49.9    90    3.0   282      5.3   929.0    0.00     680    65.2
 145   10:40   49.9    92    2.7   282      4.2   929.0    0.00     703    65.4

Return to Highlands Peak graphs page.


Western Regional Climate Center,wrcc@dri.edu